createdAt,value
2018-11-29T00:00:06.702Z,98788.63
2018-11-29T00:00:38.301Z,98783.97
2018-11-29T00:01:09.897Z,98794.17
2018-11-29T00:01:41.550Z,98785.64
2018-11-29T00:02:13.157Z,98789.44
2018-11-29T00:02:44.777Z,98790.28
2018-11-29T00:03:16.374Z,98785.17
2018-11-29T00:03:47.988Z,98790.68
2018-11-29T00:04:19.575Z,98785.47
2018-11-29T00:04:51.171Z,98789.73
2018-11-29T00:05:22.784Z,98794.05
2018-11-29T00:05:54.578Z,98785.12
2018-11-29T00:06:26.164Z,98786.88
2018-11-29T00:06:57.754Z,98783.47
2018-11-29T00:07:29.358Z,98781.80
2018-11-29T00:08:00.953Z,98780.05
2018-11-29T00:08:32.550Z,98778.38
2018-11-29T00:09:04.142Z,98780.52
2018-11-29T00:09:35.733Z,98776.25
2018-11-29T00:10:07.343Z,98774.59
2018-11-29T00:10:38.970Z,98772.88
2018-11-29T00:11:10.575Z,98772.84
2018-11-29T00:11:42.152Z,98771.52
2018-11-29T00:12:13.761Z,98769.38
2018-11-29T00:12:45.362Z,98771.91
2018-11-29T00:13:16.968Z,98771.47
2018-11-29T00:13:48.568Z,98771.43
2018-11-29T00:14:20.158Z,98776.94
2018-11-29T00:14:51.750Z,98774.37
2018-11-29T00:15:23.355Z,98772.20
2018-11-29T00:15:54.963Z,98778.16
2018-11-29T00:16:26.571Z,98781.11
2018-11-29T00:16:58.191Z,98784.95
2018-11-29T00:17:29.794Z,98783.25
2018-11-29T00:18:01.400Z,98782.82
2018-11-29T00:18:32.995Z,98781.15
2018-11-29T00:19:04.585Z,98784.52
2018-11-29T00:19:36.177Z,98783.63
2018-11-29T00:20:07.792Z,98784.05
2018-11-29T00:20:39.423Z,98784.95
2018-11-29T00:21:11.023Z,98783.83
2018-11-29T00:21:42.615Z,98782.45
2018-11-29T00:22:14.224Z,98780.48
2018-11-29T00:22:45.821Z,98769.77
2018-11-29T00:23:17.439Z,98777.89
2018-11-29T00:23:49.036Z,98440.59
2018-11-29T00:24:20.622Z,98771.90
2018-11-29T00:24:52.214Z,98772.03
2018-11-29T00:25:23.809Z,98765.20
2018-11-29T00:25:55.426Z,98767.24
2018-11-29T00:26:27.032Z,98771.80
2018-11-29T00:26:58.640Z,98775.06
2018-11-29T00:27:30.238Z,98768.14
2018-11-29T00:28:01.845Z,98768.03
2018-11-29T00:28:33.449Z,98767.94
2018-11-29T00:29:05.049Z,98768.67
2018-11-29T00:29:36.656Z,98765.59
2018-11-29T00:30:08.271Z,98759.14
2018-11-29T00:30:39.927Z,98760.77
2018-11-29T00:31:11.536Z,98755.18
2018-11-29T00:31:43.129Z,98759.41
2018-11-29T00:32:14.739Z,98758.50
2018-11-29T00:32:46.347Z,98737.76
2018-11-29T00:33:17.946Z,98750.39
2018-11-29T00:33:49.542Z,98758.45
2018-11-29T00:34:21.134Z,98759.23
2018-11-29T00:34:52.730Z,98759.23
2018-11-29T00:35:24.382Z,98749.84
2018-11-29T00:35:56.012Z,98749.42
2018-11-29T00:36:27.626Z,98751.52
2018-11-29T00:36:59.232Z,98750.27
2018-11-29T00:37:30.826Z,98754.08
2018-11-29T00:38:02.438Z,98750.21
2018-11-29T00:38:34.027Z,98748.52
2018-11-29T00:39:05.608Z,98743.80
2018-11-29T00:39:37.216Z,98748.05
2018-11-29T00:40:08.814Z,98745.07
2018-11-29T00:40:40.415Z,98753.98
2018-11-29T00:41:12.045Z,98743.34
2018-11-29T00:41:43.649Z,98748.41
2018-11-29T00:42:15.265Z,98746.71
2018-11-29T00:42:46.861Z,98754.34
2018-11-29T00:43:18.467Z,98753.89
2018-11-29T00:43:50.058Z,98754.73
2018-11-29T00:44:21.654Z,98750.87
2018-11-29T00:44:53.245Z,98753.86
2018-11-29T00:45:24.851Z,98753.86
2018-11-29T00:45:56.480Z,98750.84
2018-11-29T00:46:28.074Z,98753.80
2018-11-29T00:46:59.673Z,98749.53
2018-11-29T00:47:31.275Z,98752.94
2018-11-29T00:48:02.900Z,98749.50
2018-11-29T00:48:34.494Z,98752.91
2018-11-29T00:49:06.076Z,98754.16
2018-11-29T00:49:37.667Z,98752.41
2018-11-29T00:50:09.267Z,98753.66
2018-11-29T00:50:40.890Z,98754.90
2018-11-29T00:51:12.506Z,98753.63
2018-11-29T00:51:44.088Z,98754.44
2018-11-29T00:52:15.672Z,98759.52
2018-11-29T00:52:47.247Z,98759.95
2018-11-29T00:53:18.856Z,98745.84
2018-11-29T00:53:50.464Z,98753.91
2018-11-29T00:54:22.085Z,98753.02
2018-11-29T00:54:53.691Z,98753.88
2018-11-29T00:55:25.307Z,98754.27
2018-11-29T00:55:56.902Z,98755.08
2018-11-29T00:56:28.519Z,98751.63
2018-11-29T00:57:00.132Z,98758.41
2018-11-29T00:57:31.726Z,98750.70
2018-11-29T00:58:03.323Z,98757.48
2018-11-29T00:58:34.959Z,98746.77
2018-11-29T00:59:06.565Z,98749.31
2018-11-29T00:59:38.166Z,98760.78
2018-11-29T01:00:09.766Z,98756.52
2018-11-29T01:00:41.371Z,98757.33
2018-11-29T01:01:12.997Z,98754.73
2018-11-29T01:01:44.585Z,98754.27
2018-11-29T01:02:16.164Z,98754.23
2018-11-29T01:02:47.774Z,98752.91
2018-11-29T01:03:19.398Z,98749.88
2018-11-29T01:03:51.416Z,98751.55
2018-11-29T01:04:23.006Z,98755.34
2018-11-29T01:04:54.599Z,98744.68
2018-11-29T01:05:26.182Z,98751.89
2018-11-29T01:05:57.788Z,98751.42
2018-11-29T01:06:29.460Z,98746.73
2018-11-29T01:07:01.058Z,98743.75
2018-11-29T01:07:32.658Z,98744.14
2018-11-29T01:08:04.277Z,98745.02
2018-11-29T01:08:35.888Z,98748.86
2018-11-29T01:09:07.491Z,98744.17
2018-11-29T01:09:39.097Z,98745.06
2018-11-29T01:10:10.693Z,98741.23
2018-11-29T01:10:42.271Z,98747.23
2018-11-29T01:11:13.903Z,98750.22
2018-11-29T01:11:45.508Z,98749.38
2018-11-29T01:12:17.105Z,98747.70
2018-11-29T01:12:48.702Z,98745.58
2018-11-29T01:13:20.312Z,98751.55
2018-11-29T01:13:51.905Z,98757.09
2018-11-29T01:14:23.491Z,98727.45
2018-11-29T01:14:55.086Z,98747.75
2018-11-29T01:15:26.681Z,98749.45
2018-11-29T01:15:58.264Z,98748.22
2018-11-29T01:16:29.881Z,98752.09
2018-11-29T01:17:01.478Z,98754.66
2018-11-29T01:17:33.071Z,98756.78
2018-11-29T01:18:04.666Z,98749.16
2018-11-29T01:18:36.261Z,98746.59
2018-11-29T01:19:07.863Z,98758.57
2018-11-29T01:19:39.462Z,98752.64
2018-11-29T01:20:11.068Z,98758.61
2018-11-29T01:20:42.661Z,98768.03
2018-11-29T01:21:14.268Z,98756.09
2018-11-29T01:21:45.886Z,98762.10
2018-11-29T01:22:17.488Z,98766.37
2018-11-29T01:22:49.088Z,98769.78
2018-11-29T01:23:20.686Z,98770.23
2018-11-29T01:23:52.289Z,98774.11
2018-11-29T01:24:23.886Z,98774.54
2018-11-29T01:24:55.492Z,98780.94
2018-11-29T01:25:27.104Z,98775.00
2018-11-29T01:25:58.701Z,98775.00
2018-11-29T01:26:30.331Z,98773.34
2018-11-29T01:27:01.943Z,98777.20
2018-11-29T01:27:33.538Z,98771.23
2018-11-29T01:28:05.149Z,98776.36
2018-11-29T01:28:36.756Z,98778.52
2018-11-29T01:29:08.354Z,98776.39
2018-11-29T01:29:40.575Z,98779.84
2018-11-29T01:30:12.184Z,98776.88
2018-11-29T01:30:43.782Z,98779.88
2018-11-29T01:31:15.392Z,98780.75
2018-11-29T01:31:47.028Z,98782.07
2018-11-29T01:32:18.634Z,98776.10
2018-11-29T01:32:50.239Z,98772.73
2018-11-29T01:33:21.851Z,98771.06
2018-11-29T01:33:53.451Z,98772.77
2018-11-29T01:34:25.042Z,98768.96
2018-11-29T01:34:56.655Z,98760.05
2018-11-29T01:35:28.268Z,98761.78
2018-11-29T01:35:59.866Z,98757.98
2018-11-29T01:36:31.491Z,98756.31
2018-11-29T01:37:03.101Z,98754.22
2018-11-29T01:37:34.701Z,98758.87
2018-11-29T01:38:06.293Z,98752.45
2018-11-29T01:38:37.898Z,98763.95
2018-11-29T01:39:09.509Z,98760.51
2018-11-29T01:39:41.105Z,98760.51
2018-11-29T01:40:12.698Z,98759.63
2018-11-29T01:40:44.280Z,98757.95
2018-11-29T01:41:15.878Z,98759.63
2018-11-29T01:41:47.513Z,98760.94
2018-11-29T01:42:19.096Z,98764.77
2018-11-29T01:42:50.704Z,98777.97
2018-11-29T01:43:22.312Z,98757.98
2018-11-29T01:43:53.905Z,98755.89
2018-11-29T01:44:25.515Z,98750.42
2018-11-29T01:44:57.100Z,98740.20
2018-11-29T01:45:28.715Z,98738.48
2018-11-29T01:46:00.334Z,98741.50
2018-11-29T01:46:31.955Z,98733.41
2018-11-29T01:47:03.569Z,98733.88
2018-11-29T01:47:35.162Z,98727.94
2018-11-29T01:48:06.761Z,98727.55
2018-11-29T01:48:38.362Z,98725.42
2018-11-29T01:49:09.953Z,98724.17
2018-11-29T01:49:41.550Z,98722.47
2018-11-29T01:50:13.150Z,98726.77
2018-11-29T01:50:44.756Z,98728.46
2018-11-29T01:51:16.350Z,98726.80
2018-11-29T01:51:47.988Z,98728.07
2018-11-29T01:52:19.584Z,98720.44
2018-11-29T01:52:51.178Z,98729.80
2018-11-29T01:53:22.756Z,98725.12
2018-11-29T01:53:54.364Z,98726.40
2018-11-29T01:54:25.962Z,98732.39
2018-11-29T01:54:57.547Z,98724.72
2018-11-29T01:55:29.141Z,98726.85
2018-11-29T01:56:00.720Z,98726.00
2018-11-29T01:56:32.341Z,98734.91
2018-11-29T01:57:03.939Z,98718.30
2018-11-29T01:57:35.516Z,98721.32
2018-11-29T01:58:07.119Z,98718.73
2018-11-29T01:58:38.719Z,98720.02
2018-11-29T01:59:10.310Z,98716.61
2018-11-29T01:59:41.906Z,98717.45
2018-11-29T02:00:13.528Z,98719.16
2018-11-29T02:00:45.126Z,98717.45
2018-11-29T02:01:16.732Z,98714.05
2018-11-29T02:01:48.364Z,98718.73
2018-11-29T02:02:19.976Z,98708.94
2018-11-29T02:02:51.584Z,98717.03
2018-11-29T02:03:23.188Z,98717.45
2018-11-29T02:03:54.797Z,98715.75
2018-11-29T02:04:26.398Z,98715.75
2018-11-29T02:04:57.997Z,98721.26
2018-11-29T02:05:29.590Z,98716.58
2018-11-29T02:06:01.192Z,98714.87
2018-11-29T02:06:32.814Z,98725.48
2018-11-29T02:07:04.420Z,98728.46
2018-11-29T02:07:36.017Z,98720.34
2018-11-29T02:08:07.622Z,98723.29
2018-11-29T02:08:39.217Z,98734.79
2018-11-29T02:09:10.814Z,98733.05
2018-11-29T02:09:42.406Z,98736.42
2018-11-29T02:10:14.001Z,98728.33
2018-11-29T02:10:45.593Z,98720.63
2018-11-29T02:11:17.186Z,98727.41
2018-11-29T02:11:48.811Z,98729.55
2018-11-29T02:12:20.424Z,98727.38
2018-11-29T02:12:52.170Z,98724.37
2018-11-29T02:13:23.766Z,98733.31
2018-11-29T02:13:55.376Z,98732.03
2018-11-29T02:14:26.974Z,98727.73
2018-11-29T02:14:58.565Z,98723.91
2018-11-29T02:15:30.177Z,98733.24
2018-11-29T02:16:01.795Z,98729.83
2018-11-29T02:16:33.415Z,98734.48
2018-11-29T02:17:05.010Z,98726.81
2018-11-29T02:17:36.593Z,98734.88
2018-11-29T02:18:08.176Z,98725.50
2018-11-29T02:18:39.784Z,98722.09
2018-11-29T02:19:11.378Z,98719.50
2018-11-29T02:19:42.955Z,98721.63
2018-11-29T02:20:14.536Z,98725.01
2018-11-29T02:20:46.140Z,98726.75
2018-11-29T02:21:17.723Z,98726.28
2018-11-29T02:21:49.355Z,98715.20
2018-11-29T02:22:20.941Z,98709.66
2018-11-29T02:22:52.548Z,98715.59
2018-11-29T02:23:24.142Z,98710.45
2018-11-29T02:23:55.752Z,98712.97
2018-11-29T02:24:27.350Z,98712.97
2018-11-29T02:24:58.951Z,98707.39
2018-11-29T02:25:30.556Z,98713.77
2018-11-29T02:26:02.164Z,98682.94
2018-11-29T02:26:33.780Z,98710.75
2018-11-29T02:27:05.378Z,98711.14
2018-11-29T02:27:36.988Z,98713.67
2018-11-29T02:28:08.596Z,98716.64
2018-11-29T02:28:40.201Z,98723.86
2018-11-29T02:29:11.816Z,98718.27
2018-11-29T02:29:43.688Z,98721.22
2018-11-29T02:30:15.311Z,98719.09
2018-11-29T02:30:46.920Z,98719.05
2018-11-29T02:31:18.504Z,98721.99
2018-11-29T02:31:50.126Z,98712.19
2018-11-29T02:32:21.738Z,98715.59
2018-11-29T02:32:53.343Z,98722.38
2018-11-29T02:33:24.944Z,98712.99
2018-11-29T02:33:56.542Z,98712.10
2018-11-29T02:34:28.138Z,98710.43
2018-11-29T02:34:59.720Z,98716.36
2018-11-29T02:35:31.325Z,98712.95
2018-11-29T02:36:02.928Z,98709.11
2018-11-29T02:36:34.547Z,98710.78
2018-11-29T02:37:06.142Z,98702.68
2018-11-29T02:37:37.747Z,98709.54
2018-11-29T02:38:09.348Z,98710.81
2018-11-29T02:38:40.956Z,98706.94
2018-11-29T02:39:12.568Z,98703.56
2018-11-29T02:39:44.171Z,98710.35
2018-11-29T02:40:15.766Z,98703.95
2018-11-29T02:40:47.372Z,98698.88
2018-11-29T02:41:18.976Z,98702.72
2018-11-29T02:41:50.609Z,98697.17
2018-11-29T02:42:22.207Z,98704.85
2018-11-29T02:42:53.803Z,98700.63
2018-11-29T02:43:25.404Z,98703.61
2018-11-29T02:43:57.008Z,98712.14
2018-11-29T02:44:28.608Z,98709.19
2018-11-29T02:45:00.202Z,98713.45
2018-11-29T02:45:31.794Z,98643.70
2018-11-29T02:46:03.391Z,98706.64
2018-11-29T02:46:35.010Z,98709.20
2018-11-29T02:47:06.629Z,98712.19
2018-11-29T02:47:38.240Z,98707.54
2018-11-29T02:48:09.845Z,98706.30
2018-11-29T02:48:41.448Z,98710.56
2018-11-29T02:49:13.047Z,98713.16
2018-11-29T02:49:44.651Z,98712.73
2018-11-29T02:50:16.250Z,98715.75
2018-11-29T02:50:47.832Z,98718.31
2018-11-29T02:51:19.425Z,98720.45
2018-11-29T02:51:51.056Z,98726.88
2018-11-29T02:52:22.649Z,98721.34
2018-11-29T02:52:54.265Z,98724.36
2018-11-29T02:53:25.872Z,98729.05
2018-11-29T02:53:57.484Z,98731.64
2018-11-29T02:54:29.086Z,98723.97
2018-11-29T02:55:00.682Z,98728.23
2018-11-29T02:55:32.278Z,98726.56
2018-11-29T02:56:03.890Z,98728.70
2018-11-29T02:56:35.496Z,98729.16
2018-11-29T02:57:07.104Z,98729.16
2018-11-29T02:57:38.740Z,98731.29
2018-11-29T02:58:10.334Z,98728.34
2018-11-29T02:58:41.926Z,98724.97
2018-11-29T02:59:13.530Z,98725.01
2018-11-29T02:59:45.126Z,98727.17
2018-11-29T03:00:16.746Z,98727.59
2018-11-29T03:00:48.360Z,98725.93
2018-11-29T03:01:19.964Z,98721.70
2018-11-29T03:01:51.586Z,98722.55
2018-11-29T03:02:23.181Z,98719.61
2018-11-29T03:02:54.789Z,98726.85
2018-11-29T03:03:26.389Z,98725.19
2018-11-29T03:03:57.982Z,98723.05
2018-11-29T03:04:29.568Z,98729.48
2018-11-29T03:05:01.176Z,98724.40
2018-11-29T03:05:32.788Z,98719.28
2018-11-29T03:06:04.407Z,98709.06
2018-11-29T03:06:35.996Z,98727.81
2018-11-29T03:07:07.597Z,98717.16
2018-11-29T03:07:39.193Z,98716.73
2018-11-29T03:08:10.803Z,98718.83
2018-11-29T03:08:42.407Z,98717.12
2018-11-29T03:09:14.002Z,98720.14
2018-11-29T03:09:45.609Z,98722.27
2018-11-29T03:10:17.206Z,98716.31
2018-11-29T03:10:48.802Z,98709.53
2018-11-29T03:11:20.407Z,98714.21
2018-11-29T03:11:52.029Z,98712.11
2018-11-29T03:12:23.626Z,98710.41
2018-11-29T03:12:55.250Z,98716.41
2018-11-29T03:13:26.850Z,98716.84
2018-11-29T03:13:58.460Z,98710.48
2018-11-29T03:14:30.069Z,98707.92
2018-11-29T03:15:01.656Z,98706.68
2018-11-29T03:15:33.259Z,98704.55
2018-11-29T03:16:04.857Z,98703.73
2018-11-29T03:16:36.465Z,98712.25
2018-11-29T03:17:08.063Z,98702.84
2018-11-29T03:17:39.679Z,98698.16
2018-11-29T03:18:11.284Z,98706.29
2018-11-29T03:18:42.881Z,98694.36
2018-11-29T03:19:14.479Z,98698.63
2018-11-29T03:19:46.085Z,98702.91
2018-11-29T03:20:17.683Z,98697.37
2018-11-29T03:20:49.284Z,98699.97
2018-11-29T03:21:20.884Z,98694.43
2018-11-29T03:21:52.491Z,98697.37
2018-11-29T03:22:24.114Z,98688.47
2018-11-29T03:22:55.708Z,98692.27
2018-11-29T03:23:27.320Z,98692.27
2018-11-29T03:23:58.919Z,98690.95
2018-11-29T03:24:30.514Z,98692.70
2018-11-29T03:25:02.106Z,98679.45
2018-11-29T03:25:33.692Z,98687.58
2018-11-29T03:26:05.291Z,98685.84
2018-11-29T03:26:36.888Z,98689.64
2018-11-29T03:27:08.551Z,98678.50
2018-11-29T03:27:40.147Z,98685.31
2018-11-29T03:28:11.746Z,98683.12
2018-11-29T03:28:43.354Z,98682.27
2018-11-29T03:29:14.960Z,98687.41
2018-11-29T03:29:46.674Z,98674.25
2018-11-29T03:30:18.273Z,98678.57
2018-11-29T03:30:49.889Z,98669.23
2018-11-29T03:31:21.492Z,98678.61
2018-11-29T03:31:53.272Z,98676.91
2018-11-29T03:32:24.913Z,98681.59
2018-11-29T03:32:56.511Z,98667.08
2018-11-29T03:33:28.117Z,98676.44
2018-11-29T03:33:59.714Z,98676.02
2018-11-29T03:34:31.306Z,98667.89
2018-11-29T03:35:02.885Z,98665.30
2018-11-29T03:35:34.491Z,98679.75
2018-11-29T03:36:06.097Z,98673.36
2018-11-29T03:36:37.698Z,98666.50
2018-11-29T03:37:09.318Z,98671.19
2018-11-29T03:37:40.955Z,98667.75
2018-11-29T03:38:12.544Z,98661.36
2018-11-29T03:38:44.141Z,98668.13
2018-11-29T03:39:15.749Z,98673.22
2018-11-29T03:39:47.346Z,98665.55
2018-11-29T03:40:18.969Z,98666.82
2018-11-29T03:40:50.579Z,98665.08
2018-11-29T03:41:22.160Z,98663.77
2018-11-29T03:41:53.755Z,98666.74
2018-11-29T03:42:25.374Z,98672.25
2018-11-29T03:42:56.984Z,98674.34
2018-11-29T03:43:28.588Z,98642.85
2018-11-29T03:44:00.196Z,98654.31
2018-11-29T03:44:31.780Z,98657.68
2018-11-29T03:45:03.418Z,98657.22
2018-11-29T03:45:35.011Z,98646.95
2018-11-29T03:46:06.620Z,98649.51
2018-11-29T03:46:38.234Z,98655.90
2018-11-29T03:47:09.848Z,98657.61
2018-11-29T03:47:41.460Z,98651.17
2018-11-29T03:48:13.068Z,98653.73
2018-11-29T03:48:44.685Z,98648.58
2018-11-29T03:49:16.288Z,98654.97
2018-11-29T03:49:47.897Z,98648.19
2018-11-29T03:50:19.505Z,98660.13
2018-11-29T03:50:51.098Z,98657.14
2018-11-29T03:51:22.707Z,98654.16
2018-11-29T03:51:54.358Z,98649.47
2018-11-29T03:52:26.016Z,98648.62
2018-11-29T03:52:57.613Z,98658.42
2018-11-29T03:53:29.206Z,98655.44
2018-11-29T03:54:00.819Z,98644.74
2018-11-29T03:54:32.415Z,98641.30
2018-11-29T03:55:04.009Z,98626.38
2018-11-29T03:55:35.621Z,98635.32
2018-11-29T03:56:07.213Z,98653.57
2018-11-29T03:56:38.822Z,98634.39
2018-11-29T03:57:10.425Z,98633.92
2018-11-29T03:57:42.068Z,98634.77
2018-11-29T03:58:13.651Z,98627.06
2018-11-29T03:58:45.241Z,98630.89
2018-11-29T03:59:16.844Z,98629.58
2018-11-29T03:59:48.447Z,98635.97
2018-11-29T04:00:20.028Z,98632.52
2018-11-29T04:00:51.622Z,98628.69
2018-11-29T04:01:23.208Z,98631.62
2018-11-29T04:01:54.821Z,98632.04
2018-11-29T04:02:26.438Z,98643.13
2018-11-29T04:02:58.067Z,98623.52
2018-11-29T04:03:29.667Z,98639.28
2018-11-29T04:04:01.270Z,98626.88
2018-11-29T04:04:32.862Z,98606.98
2018-11-29T04:05:04.459Z,98627.69
2018-11-29T04:05:36.082Z,98620.43
2018-11-29T04:06:07.680Z,98621.70
2018-11-29T04:06:39.292Z,98629.77
2018-11-29T04:07:10.900Z,98630.20
2018-11-29T04:07:42.568Z,98613.56
2018-11-29T04:08:14.173Z,98614.03
2018-11-29T04:08:45.776Z,98613.61
2018-11-29T04:09:17.379Z,98628.10
2018-11-29T04:09:48.979Z,98619.96
2018-11-29T04:10:20.574Z,98629.77
2018-11-29T04:10:52.170Z,98624.65
2018-11-29T04:11:23.770Z,98623.84
2018-11-29T04:11:55.377Z,98621.33
2018-11-29T04:12:26.978Z,98613.66
2018-11-29T04:12:58.597Z,98618.39
2018-11-29T04:13:30.187Z,98625.64
2018-11-29T04:14:01.804Z,98612.05
2018-11-29T04:14:33.405Z,98615.89
2018-11-29T04:15:05.001Z,98619.34
2018-11-29T04:15:36.640Z,98619.00
2018-11-29T04:16:08.234Z,98627.95
2018-11-29T04:16:39.830Z,98614.39
2018-11-29T04:17:11.427Z,98631.88
2018-11-29T04:17:43.064Z,98628.03
2018-11-29T04:18:14.670Z,98638.73
2018-11-29T04:18:46.262Z,98617.00
2018-11-29T04:19:17.854Z,98621.34
2018-11-29T04:19:49.455Z,98632.00
2018-11-29T04:20:21.067Z,98624.80
2018-11-29T04:20:52.661Z,98627.39
2018-11-29T04:21:24.259Z,98629.56
2018-11-29T04:21:55.845Z,98625.73
2018-11-29T04:22:27.455Z,98617.64
2018-11-29T04:22:59.092Z,98622.36
2018-11-29T04:23:30.685Z,98622.79
2018-11-29T04:24:02.271Z,98627.55
2018-11-29T04:24:33.867Z,98625.84
2018-11-29T04:25:05.462Z,98633.09
2018-11-29T04:25:37.057Z,98633.94
2018-11-29T04:26:08.640Z,98622.05
2018-11-29T04:26:40.248Z,98630.61
2018-11-29T04:27:11.847Z,98625.11
2018-11-29T04:27:43.481Z,98628.09
2018-11-29T04:28:15.069Z,98625.19
2018-11-29T04:28:46.662Z,98614.97
2018-11-29T04:29:18.272Z,98615.44
2018-11-29T04:29:49.874Z,98607.77
2018-11-29T04:30:21.466Z,98617.59
2018-11-29T04:30:53.065Z,98607.38
2018-11-29T04:31:24.671Z,98608.70
2018-11-29T04:31:56.260Z,98604.89
2018-11-29T04:32:27.855Z,98601.06
2018-11-29T04:32:59.493Z,98601.48
2018-11-29T04:33:31.108Z,98601.45
2018-11-29T04:34:02.713Z,98605.72
2018-11-29T04:34:34.319Z,98603.16
2018-11-29T04:35:05.918Z,98608.73
2018-11-29T04:35:37.524Z,98612.14
2018-11-29T04:36:09.152Z,98615.97
2018-11-29T04:36:40.758Z,98612.17
2018-11-29T04:37:12.363Z,98619.88
2018-11-29T04:37:44.047Z,98609.27
2018-11-29T04:38:15.656Z,98609.70
2018-11-29T04:38:47.250Z,98613.98
2018-11-29T04:39:18.861Z,98613.14
2018-11-29T04:39:50.458Z,98637.83
2018-11-29T04:40:22.050Z,98612.75
2018-11-29T04:40:53.646Z,98608.06
2018-11-29T04:41:25.237Z,98611.47
2018-11-29T04:41:56.824Z,98610.66
2018-11-29T04:42:28.417Z,98611.51
2018-11-29T04:43:00.042Z,98603.45
2018-11-29T04:43:31.648Z,98607.72
2018-11-29T04:44:03.237Z,98612.00
2018-11-29T04:44:34.831Z,98620.94
2018-11-29T04:45:06.441Z,98628.61
2018-11-29T04:45:38.042Z,98612.89
2018-11-29T04:46:09.634Z,98621.83
2018-11-29T04:46:41.219Z,98623.53
2018-11-29T04:47:12.803Z,98620.55
2018-11-29T04:47:44.446Z,98626.94
2018-11-29T04:48:16.976Z,98617.61
2018-11-29T04:48:48.576Z,98627.36
2018-11-29T04:49:20.188Z,98627.79
2018-11-29T04:49:51.797Z,98629.91
2018-11-29T04:50:23.390Z,98628.64
2018-11-29T04:50:54.985Z,98623.92
2018-11-29T04:51:26.579Z,98632.44
2018-11-29T04:51:58.184Z,98626.52
2018-11-29T04:52:29.778Z,98629.49
2018-11-29T04:53:01.435Z,98623.53
2018-11-29T04:53:33.036Z,98624.81
2018-11-29T04:54:04.653Z,98629.49
2018-11-29T04:54:36.260Z,98633.29
2018-11-29T04:55:07.885Z,98633.68
2018-11-29T04:55:39.478Z,98642.59
2018-11-29T04:56:11.075Z,98636.13
2018-11-29T04:56:42.674Z,98643.41
2018-11-29T04:57:14.252Z,98599.34
2018-11-29T04:57:45.890Z,98641.63
2018-11-29T04:58:17.514Z,98639.47
2018-11-29T04:58:49.110Z,98645.39
2018-11-29T04:59:20.701Z,98647.52
2018-11-29T04:59:52.289Z,98639.81
2018-11-29T05:00:23.896Z,98648.72
2018-11-29T05:00:55.478Z,98650.78
2018-11-29T05:01:27.087Z,98649.89
2018-11-29T05:01:58.699Z,98653.69
2018-11-29T05:02:30.294Z,98651.56
2018-11-29T05:03:01.916Z,98651.09
2018-11-29T05:03:33.501Z,98652.34
2018-11-29T05:04:05.107Z,98656.59
2018-11-29T05:04:36.702Z,98657.84
2018-11-29T05:05:08.312Z,98659.97
2018-11-29T05:05:39.915Z,98661.64
2018-11-29T05:06:11.542Z,98657.77
2018-11-29T05:06:43.138Z,98659.89
2018-11-29T05:07:14.750Z,98664.58
2018-11-29T05:07:46.346Z,98667.09
2018-11-29T05:08:17.970Z,98663.27
2018-11-29T05:08:49.635Z,98658.54
2018-11-29T05:09:21.231Z,98662.80
2018-11-29T05:09:52.833Z,98651.83
2018-11-29T05:10:24.429Z,98669.11
2018-11-29T05:10:56.021Z,98664.84
2018-11-29T05:11:27.624Z,98666.55
2018-11-29T05:11:59.233Z,98666.94
2018-11-29T05:12:30.869Z,98660.97
2018-11-29T05:13:02.497Z,98663.06
2018-11-29T05:13:34.099Z,98659.19
2018-11-29T05:14:05.695Z,98663.84
2018-11-29T05:14:37.276Z,98665.11
2018-11-29T05:15:08.870Z,98653.57
2018-11-29T05:15:40.481Z,98658.25
2018-11-29T05:16:12.077Z,98656.09
2018-11-29T05:16:43.671Z,98659.50
2018-11-29T05:17:15.280Z,98654.77
2018-11-29T05:17:46.874Z,98651.74
2018-11-29T05:18:18.495Z,98654.22
2018-11-29T05:18:50.108Z,98659.75
2018-11-29T05:19:21.702Z,98649.95
2018-11-29T05:19:53.312Z,98652.92
2018-11-29T05:20:24.918Z,98651.22
2018-11-29T05:20:56.513Z,98646.53
2018-11-29T05:21:28.100Z,98648.23
2018-11-29T05:21:59.708Z,98653.34
2018-11-29T05:22:31.306Z,98643.92
2018-11-29T05:23:02.920Z,98651.17
2018-11-29T05:23:34.523Z,98649.85
2018-11-29T05:24:06.129Z,98619.42
2018-11-29T05:24:37.739Z,98653.64
2018-11-29T05:25:09.349Z,98647.67
2018-11-29T05:25:40.945Z,98646.78
2018-11-29T05:26:12.552Z,98648.48
2018-11-29T05:26:44.166Z,98652.78
2018-11-29T05:27:15.758Z,98648.06
2018-11-29T05:27:47.350Z,98651.90
2018-11-29T05:28:18.991Z,98648.52
2018-11-29T05:28:50.599Z,98649.77
2018-11-29T05:29:22.194Z,98648.52
2018-11-29T05:29:53.786Z,98649.80
2018-11-29T05:30:25.404Z,98652.79
2018-11-29T05:30:56.997Z,98654.06
2018-11-29T05:31:28.580Z,98652.79
2018-11-29T05:32:00.178Z,98659.62
2018-11-29T05:32:31.791Z,98651.52
2018-11-29T05:33:03.400Z,98651.94
2018-11-29T05:33:35.034Z,98652.80
2018-11-29T05:34:06.636Z,98635.49
2018-11-29T05:34:38.234Z,98653.26
2018-11-29T05:35:09.846Z,98653.22
2018-11-29T05:35:41.431Z,98652.41
2018-11-29T05:36:13.044Z,98647.33
2018-11-29T05:36:44.632Z,98658.85
2018-11-29T05:37:16.229Z,98653.34
2018-11-29T05:37:47.822Z,98653.35
2018-11-29T05:38:19.414Z,98654.63
2018-11-29T05:38:51.048Z,98653.83
2018-11-29T05:39:22.656Z,98656.85
2018-11-29T05:39:54.260Z,98644.48
2018-11-29T05:40:25.857Z,98656.85
2018-11-29T05:40:57.451Z,98655.61
2018-11-29T05:41:29.063Z,98662.02
2018-11-29T05:42:00.658Z,98656.47
2018-11-29T05:42:32.273Z,98661.63
2018-11-29T05:43:03.876Z,98657.78
2018-11-29T05:43:35.519Z,98663.76
2018-11-29T05:44:07.116Z,98659.53
2018-11-29T05:44:38.709Z,98662.09
2018-11-29T05:45:10.315Z,98667.67
2018-11-29T05:45:41.915Z,98664.30
2018-11-29T05:46:13.520Z,98668.60
2018-11-29T05:46:45.132Z,98667.36
2018-11-29T05:47:16.735Z,98658.00
2018-11-29T05:47:48.341Z,98660.16
2018-11-29T05:48:19.948Z,98660.20
2018-11-29T05:48:51.582Z,98668.34
2018-11-29T05:49:23.188Z,98664.08
2018-11-29T05:49:54.792Z,98656.88
2018-11-29T05:50:26.404Z,98662.45
2018-11-29T05:50:58.003Z,98658.69
2018-11-29T05:51:29.598Z,98663.77
2018-11-29T05:52:01.208Z,98666.36
2018-11-29T05:52:32.812Z,98666.82
2018-11-29T05:53:04.422Z,98661.70
2018-11-29T05:53:36.018Z,98663.45
2018-11-29T05:54:07.625Z,98671.16
2018-11-29T05:54:39.218Z,98662.25
2018-11-29T05:55:10.809Z,98664.38
2018-11-29T05:55:42.396Z,98667.36
2018-11-29T05:56:13.989Z,98665.69
2018-11-29T05:56:45.586Z,98674.17
2018-11-29T05:57:17.204Z,98674.59
2018-11-29T05:57:48.816Z,98668.17
2018-11-29T05:58:20.414Z,98667.75
2018-11-29T05:58:52.033Z,98674.98
2018-11-29T05:59:23.640Z,98674.59
2018-11-29T05:59:55.237Z,98683.55
2018-11-29T06:00:26.820Z,98686.52
2018-11-29T06:00:58.413Z,98683.97
2018-11-29T06:01:30.016Z,98684.82
2018-11-29T06:02:01.624Z,98695.44
2018-11-29T06:02:33.232Z,98686.92
2018-11-29T06:03:04.826Z,98689.47
2018-11-29T06:03:36.464Z,98690.33
2018-11-29T06:04:08.076Z,98692.03
2018-11-29T06:04:39.675Z,98684.36
2018-11-29T06:05:11.273Z,98685.24
2018-11-29T06:05:42.882Z,98690.78
2018-11-29T06:06:14.489Z,98689.97
2018-11-29T06:06:46.097Z,98693.80
2018-11-29T06:07:17.714Z,98690.39
2018-11-29T06:07:49.357Z,98690.39
2018-11-29T06:08:20.947Z,98686.59
2018-11-29T06:08:52.564Z,98683.62
2018-11-29T06:09:24.206Z,98690.92
2018-11-29T06:09:55.804Z,98689.64
2018-11-29T06:10:27.403Z,98683.72
2018-11-29T06:10:59.002Z,98687.58